createdAt,value
2018-09-29T00:02:10.334Z,11.90
2018-09-29T00:04:37.874Z,11.80
2018-09-29T00:07:05.741Z,11.80
2018-09-29T00:09:33.646Z,11.90
2018-09-29T00:12:01.461Z,11.90
2018-09-29T00:14:29.009Z,11.90
2018-09-29T00:16:56.707Z,11.90
2018-09-29T00:19:24.295Z,11.80
2018-09-29T00:21:51.824Z,11.80
2018-09-29T00:24:19.871Z,11.80
2018-09-29T00:26:47.682Z,11.80
2018-09-29T00:29:15.324Z,11.80
2018-09-29T00:31:42.858Z,11.70
2018-09-29T00:34:10.501Z,11.80
2018-09-29T00:36:38.534Z,11.70
2018-09-29T00:39:07.039Z,11.70
2018-09-29T00:41:34.629Z,11.70
2018-09-29T00:44:02.205Z,11.60
2018-09-29T00:46:29.950Z,11.70
2018-09-29T00:48:58.007Z,11.60
2018-09-29T00:51:25.963Z,11.60
2018-09-29T00:53:53.523Z,11.50
2018-09-29T00:56:21.162Z,11.40
2018-09-29T00:58:49.130Z,11.40
2018-09-29T01:01:17.357Z,11.40
2018-09-29T01:03:45.433Z,11.40
2018-09-29T01:06:12.993Z,11.30
2018-09-29T01:08:40.582Z,11.40
2018-09-29T01:11:08.546Z,11.30
2018-09-29T01:13:36.445Z,11.30
2018-09-29T01:16:04.616Z,11.20
2018-09-29T01:18:32.440Z,11.20
2018-09-29T01:21:00.026Z,11.10
2018-09-29T01:23:28.336Z,11.10
2018-09-29T01:25:56.234Z,11.00
2018-09-29T01:28:24.068Z,10.90
2018-09-29T01:30:51.993Z,10.80
2018-09-29T01:33:19.532Z,10.80
2018-09-29T01:35:47.812Z,10.80
2018-09-29T01:38:15.405Z,10.70
2018-09-29T01:40:43.194Z,10.60
2018-09-29T01:43:10.874Z,10.50
2018-09-29T01:45:39.063Z,10.50
2018-09-29T01:48:07.673Z,10.40
2018-09-29T01:50:35.466Z,10.30
2018-09-29T01:53:03.492Z,10.30
2018-09-29T01:55:33.130Z,10.20
2018-09-29T01:58:00.656Z,10.20
2018-09-29T02:00:28.411Z,10.20
2018-09-29T02:02:57.025Z,10.10
2018-09-29T02:05:24.721Z,10.00
2018-09-29T02:07:52.505Z,10.00
2018-09-29T02:10:20.001Z,9.90
2018-09-29T02:12:47.619Z,9.90
2018-09-29T02:15:15.286Z,9.80
2018-09-29T02:17:42.917Z,9.70
2018-09-29T02:20:10.555Z,9.60
2018-09-29T02:22:38.152Z,9.60
2018-09-29T02:25:05.824Z,9.50
2018-09-29T02:27:33.574Z,9.50
2018-09-29T02:30:01.300Z,9.40
2018-09-29T02:32:28.824Z,9.40
2018-09-29T02:34:56.387Z,9.30
2018-09-29T02:37:23.990Z,9.30
2018-09-29T02:39:51.697Z,9.20
2018-09-29T02:42:19.345Z,9.20
2018-09-29T02:44:46.951Z,9.10
2018-09-29T02:47:14.591Z,9.10
2018-09-29T02:49:42.127Z,9.10
2018-09-29T02:52:09.677Z,9.00
2018-09-29T02:54:37.354Z,9.00
2018-09-29T02:57:05.028Z,8.90
2018-09-29T02:59:32.648Z,8.90
2018-09-29T03:02:00.233Z,8.80
2018-09-29T03:04:27.798Z,8.80
2018-09-29T03:06:55.420Z,8.80
2018-09-29T03:09:22.944Z,8.80
2018-09-29T03:11:50.500Z,8.70
2018-09-29T03:14:18.240Z,8.70
2018-09-29T03:16:45.792Z,8.70
2018-09-29T03:19:13.355Z,8.70
2018-09-29T03:21:40.895Z,8.70
2018-09-29T03:24:08.570Z,8.70
2018-09-29T03:26:37.294Z,8.60
2018-09-29T03:29:04.864Z,8.60
2018-09-29T03:31:32.428Z,8.60
2018-09-29T03:34:00.049Z,8.50
2018-09-29T03:36:27.711Z,8.40
2018-09-29T03:38:55.445Z,8.30
2018-09-29T03:41:23.036Z,8.10
2018-09-29T03:43:50.614Z,8.00
2018-09-29T03:46:18.396Z,7.90
2018-09-29T03:48:45.923Z,7.90
2018-09-29T03:51:13.457Z,7.90
2018-09-29T03:53:41.143Z,7.90
2018-09-29T03:56:08.577Z,7.90
2018-09-29T03:58:36.145Z,7.90
2018-09-29T04:01:03.716Z,7.90
2018-09-29T04:03:31.279Z,7.90
2018-09-29T04:05:58.797Z,8.00
2018-09-29T04:08:26.347Z,8.00
2018-09-29T04:10:53.958Z,8.00
2018-09-29T04:13:21.534Z,7.90
2018-09-29T04:15:49.040Z,7.90
2018-09-29T04:18:16.571Z,7.90
2018-09-29T04:20:44.146Z,7.80
2018-09-29T04:23:11.735Z,7.80
2018-09-29T04:25:39.260Z,7.80
2018-09-29T04:28:06.825Z,7.80
2018-09-29T04:30:34.361Z,7.80
2018-09-29T04:33:01.972Z,7.70
2018-09-29T04:35:29.484Z,7.70
2018-09-29T04:37:57.080Z,7.70
2018-09-29T04:40:24.614Z,7.60
2018-09-29T04:42:52.157Z,7.60
2018-09-29T04:45:19.838Z,7.50
2018-09-29T04:47:47.690Z,7.50
2018-09-29T04:50:15.204Z,7.50
2018-09-29T04:52:42.755Z,7.40
2018-09-29T04:55:10.302Z,7.30
2018-09-29T04:57:37.921Z,7.30
2018-09-29T05:00:05.537Z,7.30
2018-09-29T05:02:33.230Z,7.30
2018-09-29T05:05:00.858Z,7.30
2018-09-29T05:07:28.739Z,7.30
2018-09-29T05:09:56.358Z,7.30
2018-09-29T05:12:23.895Z,7.30
2018-09-29T05:14:52.854Z,7.40
2018-09-29T05:17:22.707Z,7.40
2018-09-29T05:19:50.268Z,7.40
2018-09-29T05:22:17.921Z,7.40
2018-09-29T05:24:45.498Z,7.40
2018-09-29T05:27:13.043Z,7.40
2018-09-29T05:29:40.626Z,7.40
2018-09-29T05:32:08.237Z,7.40
2018-09-29T05:34:35.785Z,7.40
2018-09-29T05:37:03.348Z,7.40
2018-09-29T05:39:30.888Z,7.40
2018-09-29T05:41:58.609Z,7.50
2018-09-29T05:44:26.157Z,7.50
2018-09-29T05:46:53.704Z,7.60
2018-09-29T05:49:21.266Z,7.60
2018-09-29T05:51:48.828Z,7.80
2018-09-29T05:54:16.407Z,8.00
2018-09-29T05:56:43.961Z,8.40
2018-09-29T05:59:12.249Z,8.70
2018-09-29T06:01:39.768Z,9.00
2018-09-29T06:04:07.326Z,9.40
2018-09-29T06:06:34.879Z,9.90
2018-09-29T06:09:03.948Z,10.10
2018-09-29T06:11:31.496Z,10.30
2018-09-29T06:13:59.073Z,10.60
2018-09-29T06:16:26.611Z,10.60
2018-09-29T06:18:54.215Z,10.90
2018-09-29T06:21:21.735Z,11.30
2018-09-29T06:23:49.308Z,11.40
2018-09-29T06:26:16.908Z,11.50
2018-09-29T06:28:44.431Z,11.60
2018-09-29T06:31:12.135Z,11.50
2018-09-29T06:33:39.925Z,12.00
2018-09-29T06:36:07.628Z,12.30
2018-09-29T06:38:35.422Z,12.50
2018-09-29T06:41:02.936Z,12.90
2018-09-29T06:43:30.500Z,13.10
2018-09-29T06:45:58.001Z,13.30
2018-09-29T06:48:25.576Z,13.50
2018-09-29T06:50:53.155Z,13.50
2018-09-29T06:53:20.754Z,13.60
2018-09-29T06:55:48.477Z,13.60
2018-09-29T06:58:15.990Z,13.50
2018-09-29T07:00:43.576Z,14.00
2018-09-29T07:03:11.172Z,14.50
2018-09-29T07:05:38.696Z,15.10
2018-09-29T07:08:06.236Z,15.60
2018-09-29T07:10:33.878Z,15.50
2018-09-29T07:13:01.466Z,15.50
2018-09-29T07:15:29.016Z,16.00
2018-09-29T07:17:56.566Z,16.10
2018-09-29T07:20:24.163Z,16.10
2018-09-29T07:22:51.683Z,15.80
2018-09-29T07:25:19.291Z,15.70
2018-09-29T07:27:46.993Z,15.90
2018-09-29T07:30:14.534Z,15.40
2018-09-29T07:32:42.068Z,15.20
2018-09-29T07:35:10.389Z,15.30
2018-09-29T07:37:37.947Z,15.60
2018-09-29T07:40:05.852Z,15.20
2018-09-29T07:42:33.391Z,15.10
2018-09-29T07:45:00.938Z,15.10
2018-09-29T07:47:28.464Z,15.60
2018-09-29T07:49:56.074Z,16.50
2018-09-29T07:52:23.663Z,16.90
2018-09-29T07:54:51.282Z,16.60
2018-09-29T07:57:18.958Z,16.70
2018-09-29T07:59:46.500Z,16.50
2018-09-29T08:02:14.023Z,16.30
2018-09-29T08:04:41.565Z,16.30
2018-09-29T08:07:09.155Z,16.70
2018-09-29T08:09:36.684Z,16.90
2018-09-29T08:12:04.451Z,17.10
2018-09-29T08:14:32.022Z,17.40
2018-09-29T08:16:59.596Z,17.50
2018-09-29T08:19:27.140Z,18.40
2018-09-29T08:21:55.081Z,18.80
2018-09-29T08:24:22.758Z,19.20
2018-09-29T08:26:50.297Z,19.30
2018-09-29T08:29:18.003Z,19.70
2018-09-29T08:31:45.652Z,20.10
2018-09-29T08:34:13.200Z,20.30
2018-09-29T08:36:40.767Z,20.80
2018-09-29T08:39:09.135Z,20.30
2018-09-29T08:41:36.680Z,20.90
2018-09-29T08:44:04.272Z,19.30
2018-09-29T08:46:31.985Z,19.00
2018-09-29T08:48:59.559Z,18.70
2018-09-29T08:51:27.172Z,18.90
2018-09-29T08:53:54.760Z,18.60
2018-09-29T08:56:22.304Z,18.60
2018-09-29T08:58:49.876Z,19.00
2018-09-29T09:01:17.756Z,19.40
2018-09-29T09:03:45.356Z,20.00
2018-09-29T09:06:13.104Z,20.60
2018-09-29T09:08:40.786Z,21.60
2018-09-29T09:11:08.481Z,21.50
2018-09-29T09:13:36.297Z,20.80
2018-09-29T09:16:04.296Z,20.60
2018-09-29T09:18:31.974Z,20.50
2018-09-29T09:20:59.727Z,20.60
2018-09-29T09:23:27.394Z,19.90
2018-09-29T09:25:55.136Z,19.90
2018-09-29T09:28:22.771Z,19.90
2018-09-29T09:30:50.458Z,20.70
2018-09-29T09:33:18.068Z,20.60
2018-09-29T09:35:45.695Z,20.20
2018-09-29T09:38:13.268Z,20.90
2018-09-29T09:40:40.928Z,21.00
2018-09-29T09:43:09.028Z,22.30
2018-09-29T09:45:36.644Z,21.40
2018-09-29T09:48:04.200Z,20.90
2018-09-29T09:50:32.377Z,20.80
2018-09-29T09:53:00.050Z,20.30
2018-09-29T09:55:27.800Z,19.70
2018-09-29T09:57:55.416Z,20.20
2018-09-29T10:00:27.500Z,21.10
2018-09-29T10:03:00.881Z,21.90
2018-09-29T10:05:28.537Z,22.40
2018-09-29T10:07:56.160Z,22.60
2018-09-29T10:10:23.829Z,22.30
2018-09-29T10:12:51.603Z,22.70
2018-09-29T10:15:19.330Z,23.00
2018-09-29T10:17:46.903Z,22.70
2018-09-29T10:20:14.528Z,22.50
2018-09-29T10:22:42.333Z,21.40
2018-09-29T10:25:10.549Z,21.60
2018-09-29T10:27:38.210Z,21.40
2018-09-29T10:30:06.495Z,22.80
2018-09-29T10:32:34.065Z,22.70
2018-09-29T10:35:01.765Z,24.00
2018-09-29T10:37:29.391Z,25.10
2018-09-29T10:39:56.944Z,24.60
2018-09-29T10:42:24.456Z,23.60
2018-09-29T10:44:52.013Z,24.60
2018-09-29T10:47:19.627Z,25.50
2018-09-29T10:49:47.196Z,24.60
2018-09-29T10:52:14.863Z,24.50
2018-09-29T10:54:42.433Z,25.50
2018-09-29T10:57:10.012Z,25.80
2018-09-29T10:59:37.562Z,25.70
2018-09-29T11:02:05.378Z,25.80
2018-09-29T11:04:32.966Z,26.60
2018-09-29T11:07:00.502Z,26.70
2018-09-29T11:09:28.144Z,25.70
2018-09-29T11:11:55.703Z,26.10
2018-09-29T11:14:23.426Z,26.40
2018-09-29T11:16:50.992Z,26.50
2018-09-29T11:19:18.872Z,25.80
2018-09-29T11:21:46.633Z,25.50
2018-09-29T11:24:14.410Z,25.90
2018-09-29T11:26:42.060Z,26.50
2018-09-29T11:29:09.737Z,27.00
2018-09-29T11:31:37.374Z,26.80
2018-09-29T11:34:05.252Z,27.00
2018-09-29T11:36:32.774Z,26.90
2018-09-29T11:39:00.477Z,27.10
2018-09-29T11:41:28.219Z,27.10
2018-09-29T11:43:55.863Z,26.90
2018-09-29T11:46:23.536Z,25.60
2018-09-29T11:48:51.122Z,25.30
2018-09-29T11:51:18.816Z,25.90
2018-09-29T11:53:46.432Z,26.50
2018-09-29T11:56:14.134Z,26.80
2018-09-29T11:58:41.748Z,26.70
2018-09-29T12:01:09.402Z,27.00
2018-09-29T12:03:37.068Z,27.20
2018-09-29T12:06:04.841Z,27.20
2018-09-29T12:08:32.535Z,27.30
2018-09-29T12:11:00.137Z,27.20
2018-09-29T12:13:27.799Z,27.30
2018-09-29T12:15:55.392Z,27.30
2018-09-29T12:18:23.025Z,27.50
2018-09-29T12:20:50.576Z,27.50
2018-09-29T12:23:18.289Z,27.10
2018-09-29T12:25:45.890Z,26.30
2018-09-29T12:28:13.598Z,25.90
2018-09-29T12:30:41.244Z,25.40
2018-09-29T12:33:09.046Z,25.70
2018-09-29T12:35:36.737Z,26.20
2018-09-29T12:38:04.557Z,26.10
2018-09-29T12:40:32.222Z,26.60
2018-09-29T12:42:59.867Z,26.50
2018-09-29T12:45:27.447Z,26.20
2018-09-29T12:47:55.211Z,26.30
2018-09-29T12:50:22.868Z,26.10
2018-09-29T12:52:50.640Z,25.70
2018-09-29T12:55:18.466Z,26.10
2018-09-29T12:57:46.010Z,26.00
2018-09-29T13:00:13.704Z,26.20
2018-09-29T13:02:41.293Z,26.00
2018-09-29T13:05:09.752Z,26.10
2018-09-29T13:07:37.289Z,26.50
2018-09-29T13:10:05.667Z,25.40
2018-09-29T13:12:33.392Z,25.60
2018-09-29T13:15:01.001Z,25.20
2018-09-29T13:17:28.707Z,25.60
2018-09-29T13:19:56.349Z,26.00
2018-09-29T13:22:24.127Z,26.50
2018-09-29T13:24:51.808Z,26.70
2018-09-29T13:27:19.644Z,25.90
2018-09-29T13:29:47.228Z,24.50
2018-09-29T13:32:14.853Z,24.60
2018-09-29T13:34:42.652Z,24.60
2018-09-29T13:37:10.252Z,23.50
2018-09-29T13:39:37.819Z,22.90
2018-09-29T13:42:05.533Z,23.00
2018-09-29T13:44:33.162Z,23.50
2018-09-29T13:47:00.742Z,24.00
2018-09-29T13:49:28.317Z,25.20
2018-09-29T13:51:55.902Z,25.60
2018-09-29T13:54:23.453Z,25.10
2018-09-29T13:56:51.020Z,24.30
2018-09-29T13:59:18.711Z,24.00
2018-09-29T14:01:46.301Z,23.10
2018-09-29T14:04:14.064Z,22.70
2018-09-29T14:06:41.753Z,22.60
2018-09-29T14:09:10.118Z,22.40
2018-09-29T14:11:38.088Z,22.10
2018-09-29T14:14:06.361Z,23.00
2018-09-29T14:16:34.008Z,24.00
2018-09-29T14:19:01.874Z,23.80
2018-09-29T14:21:29.626Z,24.00
2018-09-29T14:23:57.171Z,23.70
2018-09-29T14:26:24.856Z,23.40
2018-09-29T14:28:52.544Z,23.60
2018-09-29T14:31:20.277Z,23.10
2018-09-29T14:33:47.875Z,22.60
2018-09-29T14:36:15.562Z,22.20
2018-09-29T14:38:43.096Z,22.30
2018-09-29T14:41:10.665Z,22.90
2018-09-29T14:43:38.294Z,22.90
2018-09-29T14:46:06.186Z,23.10
2018-09-29T14:48:33.837Z,23.30
2018-09-29T14:51:01.411Z,23.40
2018-09-29T14:53:29.170Z,23.80
2018-09-29T14:55:57.032Z,23.50
2018-09-29T14:58:24.680Z,24.30
2018-09-29T15:00:52.277Z,24.70
2018-09-29T15:03:19.940Z,25.10
2018-09-29T15:05:47.688Z,25.30
2018-09-29T15:08:15.483Z,25.30
2018-09-29T15:10:43.025Z,24.30
2018-09-29T15:13:10.664Z,23.50
2018-09-29T15:15:38.412Z,23.10
2018-09-29T15:18:06.277Z,22.70
2018-09-29T15:20:33.889Z,22.90
2018-09-29T15:23:01.364Z,23.20
2018-09-29T15:25:29.204Z,23.70
2018-09-29T15:27:56.856Z,23.90
2018-09-29T15:30:24.417Z,23.70
2018-09-29T15:32:52.038Z,23.00
2018-09-29T15:35:19.656Z,22.90
2018-09-29T15:37:47.352Z,22.90
2018-09-29T15:40:14.965Z,22.70
2018-09-29T15:42:42.641Z,22.20
2018-09-29T15:45:10.174Z,22.60
2018-09-29T15:47:37.763Z,23.30
2018-09-29T15:50:05.826Z,22.80
2018-09-29T15:52:33.509Z,22.50
2018-09-29T15:55:01.385Z,22.60
2018-09-29T15:57:29.057Z,22.20
2018-09-29T15:59:56.675Z,21.20
2018-09-29T16:02:24.349Z,21.20
2018-09-29T16:04:52.041Z,21.10
2018-09-29T16:07:19.741Z,21.00
2018-09-29T16:09:47.782Z,21.30
2018-09-29T16:12:15.377Z,21.20
2018-09-29T16:14:43.007Z,20.90
2018-09-29T16:17:10.837Z,21.20
2018-09-29T16:19:38.560Z,20.70
2018-09-29T16:22:06.244Z,20.40
2018-09-29T16:24:33.901Z,20.10
2018-09-29T16:27:01.488Z,20.00
2018-09-29T16:29:29.028Z,20.20
2018-09-29T16:31:56.702Z,20.20
2018-09-29T16:34:24.353Z,20.10
2018-09-29T16:36:52.051Z,20.30
2018-09-29T16:39:19.677Z,20.10
2018-09-29T16:41:47.320Z,19.70
2018-09-29T16:44:15.001Z,19.20
2018-09-29T16:46:42.713Z,18.70
2018-09-29T16:49:10.230Z,18.40
2018-09-29T16:51:37.831Z,17.90
2018-09-29T16:54:05.440Z,17.30
2018-09-29T16:56:33.195Z,16.80
2018-09-29T16:59:00.883Z,16.40
2018-09-29T17:01:28.628Z,16.10
2018-09-29T17:03:56.224Z,15.70
2018-09-29T17:08:58.082Z,15.20
2018-09-29T17:11:25.729Z,15.00
2018-09-29T17:13:53.383Z,14.80
2018-09-29T17:16:21.124Z,14.60
2018-09-29T17:18:48.821Z,14.50
2018-09-29T17:21:16.493Z,14.40
2018-09-29T17:23:44.072Z,14.30
2018-09-29T17:26:11.911Z,14.10
2018-09-29T17:28:39.576Z,14.00
2018-09-29T17:31:07.277Z,13.90
2018-09-29T17:33:35.126Z,13.80
2018-09-29T17:36:02.858Z,13.60
2018-09-29T17:38:30.502Z,13.40
2018-09-29T17:40:58.364Z,13.30
2018-09-29T17:43:26.009Z,13.10
2018-09-29T17:45:53.706Z,13.10
2018-09-29T17:48:21.357Z,13.00
2018-09-29T17:50:48.904Z,13.00
2018-09-29T17:53:16.664Z,12.90
2018-09-29T17:55:44.382Z,12.80
2018-09-29T17:58:12.037Z,12.70
2018-09-29T18:00:39.675Z,12.60
2018-09-29T18:03:07.357Z,12.60
2018-09-29T18:05:35.223Z,12.40
2018-09-29T18:08:02.852Z,12.30
2018-09-29T18:10:30.365Z,12.20
2018-09-29T18:12:58.073Z,12.10
2018-09-29T18:15:25.737Z,12.00
2018-09-29T18:17:53.346Z,11.80
2018-09-29T18:20:20.947Z,11.70
2018-09-29T18:22:48.687Z,11.50
2018-09-29T18:25:16.637Z,11.40
2018-09-29T18:27:44.177Z,11.30
2018-09-29T18:30:11.740Z,11.20
2018-09-29T18:32:41.261Z,11.10
2018-09-29T18:35:08.829Z,11.00
2018-09-29T18:37:36.489Z,10.90
2018-09-29T18:40:04.480Z,10.80
2018-09-29T18:42:32.458Z,10.80
2018-09-29T18:45:00.381Z,10.70
2018-09-29T18:47:27.937Z,10.60
2018-09-29T18:49:55.744Z,10.50
2018-09-29T18:52:23.383Z,10.50
2018-09-29T18:54:51.477Z,10.40
2018-09-29T18:57:20.175Z,10.30
2018-09-29T18:59:48.164Z,10.20
2018-09-29T19:02:15.820Z,10.10
2018-09-29T19:04:43.984Z,10.10
2018-09-29T19:07:11.629Z,10.00
2018-09-29T19:09:40.059Z,9.80
2018-09-29T19:12:07.717Z,9.70
2018-09-29T19:14:35.395Z,9.60
2018-09-29T19:17:03.126Z,9.50
2018-09-29T19:19:30.841Z,9.50
2018-09-29T19:21:58.517Z,9.40
2018-09-29T19:24:26.408Z,9.30
2018-09-29T19:26:54.124Z,9.20
2018-09-29T19:29:21.743Z,9.10
2018-09-29T19:31:49.356Z,9.00
2018-09-29T19:34:16.963Z,8.90
2018-09-29T19:36:44.708Z,8.80
2018-09-29T19:39:12.340Z,8.70
2018-09-29T19:41:40.131Z,8.70
2018-09-29T19:44:07.754Z,8.70
2018-09-29T19:46:35.324Z,8.60
2018-09-29T19:49:03.010Z,8.50
2018-09-29T19:51:30.796Z,8.40
2018-09-29T19:53:58.410Z,8.30
2018-09-29T19:56:25.947Z,8.20
2018-09-29T19:58:53.564Z,8.20
2018-09-29T20:01:21.160Z,8.20
2018-09-29T20:03:49.141Z,8.10
2018-09-29T20:06:16.772Z,8.10
2018-09-29T20:08:44.586Z,8.00
2018-09-29T20:11:12.463Z,7.90
2018-09-29T20:13:40.228Z,7.80
2018-09-29T20:16:08.007Z,7.80
2018-09-29T20:18:35.594Z,7.70
2018-09-29T20:21:03.129Z,7.60
2018-09-29T20:23:30.669Z,7.50
2018-09-29T20:25:58.243Z,7.50
2018-09-29T20:28:25.811Z,7.40
2018-09-29T20:30:53.440Z,7.40
2018-09-29T20:33:21.206Z,7.40
2018-09-29T20:35:48.766Z,7.30
2018-09-29T20:38:16.334Z,7.30
2018-09-29T20:40:44.098Z,7.20
2018-09-29T20:43:11.965Z,7.10
2018-09-29T20:45:39.524Z,7.10
2018-09-29T20:48:07.155Z,7.10
2018-09-29T20:50:35.040Z,7.00
2018-09-29T20:53:02.712Z,7.00
2018-09-29T20:55:30.556Z,7.00
2018-09-29T20:57:58.304Z,6.90
2018-09-29T21:00:25.993Z,6.90
2018-09-29T21:02:53.893Z,7.00
2018-09-29T21:05:21.497Z,6.90
2018-09-29T21:07:49.479Z,6.90
2018-09-29T21:10:17.157Z,6.80
2018-09-29T21:12:44.853Z,6.70
2018-09-29T21:15:12.448Z,6.80
2018-09-29T21:17:40.359Z,6.80
2018-09-29T21:20:08.316Z,6.70
2018-09-29T21:22:36.015Z,6.60
2018-09-29T21:25:03.676Z,6.60
2018-09-29T21:27:31.382Z,6.50
2018-09-29T21:29:59.056Z,6.40
2018-09-29T21:32:26.669Z,6.30
2018-09-29T21:34:54.417Z,6.30
2018-09-29T21:37:21.987Z,6.20
2018-09-29T21:39:49.604Z,6.30
2018-09-29T21:42:17.281Z,6.30
2018-09-29T21:44:44.956Z,6.30
2018-09-29T21:47:12.581Z,6.20
2018-09-29T21:49:40.132Z,6.20
2018-09-29T21:52:07.685Z,6.10
2018-09-29T21:54:35.303Z,6.10
2018-09-29T21:57:02.927Z,6.00
2018-09-29T21:59:30.611Z,5.90
2018-09-29T22:01:58.232Z,5.90
2018-09-29T22:04:26.164Z,5.90
2018-09-29T22:06:53.667Z,5.90
2018-09-29T22:09:22.492Z,5.80
2018-09-29T22:11:50.782Z,5.80
2018-09-29T22:14:18.473Z,5.80
2018-09-29T22:16:46.041Z,5.70
2018-09-29T22:19:13.845Z,5.70
2018-09-29T22:21:41.514Z,5.60
2018-09-29T22:24:09.465Z,5.60
2018-09-29T22:26:37.145Z,5.60
2018-09-29T22:29:05.224Z,5.50
2018-09-29T22:31:32.868Z,5.50
2018-09-29T22:34:07.301Z,5.40
2018-09-29T22:36:34.948Z,5.40
2018-09-29T22:39:03.249Z,5.40
2018-09-29T22:41:30.907Z,5.40
2018-09-29T22:43:58.519Z,5.30
2018-09-29T22:46:26.300Z,5.30
2018-09-29T22:48:53.949Z,5.30
2018-09-29T22:51:21.503Z,5.20
2018-09-29T22:53:49.227Z,5.20
2018-09-29T22:56:16.875Z,5.20
2018-09-29T22:58:44.424Z,5.20
2018-09-29T23:01:11.960Z,5.20
2018-09-29T23:03:39.663Z,5.10
2018-09-29T23:06:07.199Z,5.10
2018-09-29T23:08:34.730Z,5.10
2018-09-29T23:11:02.589Z,5.20
2018-09-29T23:13:30.327Z,5.20
2018-09-29T23:15:57.928Z,5.20
2018-09-29T23:18:25.744Z,5.20
2018-09-29T23:20:53.389Z,5.20
2018-09-29T23:23:21.032Z,5.10
2018-09-29T23:25:48.579Z,5.10
2018-09-29T23:28:16.137Z,5.10
2018-09-29T23:30:43.825Z,5.10
2018-09-29T23:33:11.646Z,5.10
2018-09-29T23:35:39.358Z,5.10
2018-09-29T23:38:07.116Z,5.00
2018-09-29T23:40:34.780Z,5.00
2018-09-29T23:43:02.423Z,5.00
2018-09-29T23:45:30.060Z,5.00
2018-09-29T23:47:57.636Z,5.00
2018-09-29T23:50:25.650Z,4.90
2018-09-29T23:52:53.407Z,4.90
2018-09-29T23:55:21.204Z,4.80
2018-09-29T23:57:48.788Z,4.80
